createdAt,value
2023-03-06T00:00:29.723Z,97427.88
2023-03-06T00:02:57.817Z,97417.09
2023-03-06T00:05:24.564Z,97418.75
2023-03-06T00:07:51.159Z,97419.50
2023-03-06T00:10:21.394Z,97420.31
2023-03-06T00:12:48.312Z,97414.41
2023-03-06T00:15:14.814Z,97417.28
2023-03-06T00:17:41.417Z,97411.81
2023-03-06T00:20:10.464Z,97411.94
2023-03-06T00:22:37.131Z,97409.63
2023-03-06T00:25:04.740Z,97408.34
2023-03-06T00:27:32.438Z,97412.38
2023-03-06T00:30:01.000Z,97407.09
2023-03-06T00:32:28.346Z,97409.88
2023-03-06T00:34:56.020Z,97401.41
2023-03-06T00:37:24.180Z,97402.81
2023-03-06T00:39:51.137Z,97398.78
2023-03-06T00:42:19.257Z,97410.97
2023-03-06T00:44:46.267Z,97409.56
2023-03-06T00:47:13.817Z,97404.19
2023-03-06T00:49:40.279Z,97393.88
2023-03-06T00:52:06.734Z,97398.91
2023-03-06T00:54:33.218Z,97384.75
2023-03-06T00:56:59.639Z,97381.91
2023-03-06T00:59:27.516Z,97388.16
2023-03-06T01:01:54.761Z,97381.91
2023-03-06T01:04:22.065Z,97379.06
2023-03-06T01:06:48.859Z,97374.00
2023-03-06T01:09:15.339Z,97360.44
2023-03-06T01:11:41.855Z,97366.66
2023-03-06T01:14:09.777Z,97358.53
2023-03-06T01:16:36.969Z,97347.69
2023-03-06T01:19:04.222Z,97346.69
2023-03-06T01:21:30.758Z,97340.38
2023-03-06T01:23:58.420Z,97346.88
2023-03-06T01:26:24.907Z,97339.22
2023-03-06T01:28:51.549Z,97338.78
2023-03-06T01:31:18.026Z,97332.72
2023-03-06T01:33:45.014Z,97330.75
2023-03-06T01:36:12.580Z,97323.84
2023-03-06T01:38:39.202Z,97323.22
2023-03-06T01:41:05.988Z,97315.72
2023-03-06T01:43:37.872Z,97314.94
2023-03-06T01:46:31.461Z,97320.22
2023-03-06T01:49:04.515Z,97310.91
2023-03-06T01:51:39.597Z,97312.78
2023-03-06T01:54:15.020Z,97315.81
2023-03-06T01:56:45.769Z,97302.41
2023-03-06T01:59:13.150Z,97309.31
2023-03-06T02:01:41.052Z,97296.78
2023-03-06T02:04:09.057Z,97298.41
2023-03-06T02:06:38.256Z,97283.00
2023-03-06T02:09:06.064Z,97289.09
2023-03-06T02:11:32.756Z,97290.91
2023-03-06T02:13:59.699Z,97284.00
2023-03-06T02:16:30.239Z,97288.66
2023-03-06T02:19:01.463Z,97283.84
2023-03-06T02:21:33.183Z,97290.09
2023-03-06T02:24:09.317Z,97278.34
2023-03-06T02:26:37.409Z,97262.34
2023-03-06T02:29:04.564Z,97275.72
2023-03-06T02:31:33.233Z,97275.75
2023-03-06T02:34:27.306Z,97272.34
2023-03-06T02:37:02.585Z,97259.97
2023-03-06T02:39:33.892Z,97266.44
2023-03-06T02:42:00.721Z,97263.22
2023-03-06T02:44:32.871Z,97256.53
2023-03-06T02:46:59.304Z,97258.16
2023-03-06T02:49:26.586Z,97256.94
2023-03-06T02:51:53.227Z,97260.00
2023-03-06T02:54:19.850Z,97255.75
2023-03-06T02:56:46.460Z,97247.44
2023-03-06T02:59:13.048Z,97249.06
2023-03-06T03:01:39.801Z,97239.13
2023-03-06T03:04:06.314Z,97239.13
2023-03-06T03:06:33.127Z,97252.50
2023-03-06T03:08:59.922Z,97245.81
2023-03-06T03:11:26.386Z,97240.94
2023-03-06T03:13:53.449Z,97233.84
2023-03-06T03:16:23.666Z,97232.22
2023-03-06T03:18:51.149Z,97239.31
2023-03-06T03:21:21.490Z,97235.06
2023-03-06T03:23:48.835Z,97220.69
2023-03-06T03:26:18.601Z,97229.59
2023-03-06T03:28:53.055Z,97240.75
2023-03-06T03:31:21.237Z,97244.59
2023-03-06T03:33:47.703Z,97238.91
2023-03-06T03:36:14.236Z,97235.66
2023-03-06T03:38:44.676Z,97237.31
2023-03-06T03:41:11.564Z,97233.25
2023-03-06T03:43:38.110Z,97224.34
2023-03-06T03:46:05.926Z,97222.34
2023-03-06T03:48:32.717Z,97228.22
2023-03-06T03:51:10.733Z,97231.44
2023-03-06T03:53:40.958Z,97224.34
2023-03-06T03:56:09.187Z,97218.47
2023-03-06T03:58:42.788Z,97203.25
2023-03-06T04:01:09.295Z,97215.00
2023-03-06T04:03:37.343Z,97202.06
2023-03-06T04:06:06.072Z,97205.31
2023-03-06T04:08:32.654Z,97206.13
2023-03-06T04:10:59.457Z,97208.75
2023-03-06T04:13:26.721Z,97198.84
2023-03-06T04:15:55.186Z,97207.94
2023-03-06T04:18:23.478Z,97204.31
2023-03-06T04:20:50.914Z,97194.41
2023-03-06T04:23:19.213Z,97193.78
2023-03-06T04:25:46.423Z,97192.75
2023-03-06T04:28:13.970Z,97200.03
2023-03-06T04:30:40.785Z,97194.78
2023-03-06T04:33:07.474Z,97190.53
2023-03-06T04:35:34.843Z,97189.53
2023-03-06T04:38:06.397Z,97192.75
2023-03-06T04:40:35.437Z,97183.06
2023-03-06T04:43:03.265Z,97177.19
2023-03-06T04:45:31.506Z,97178.38
2023-03-06T04:47:58.032Z,97172.53
2023-03-06T04:50:25.464Z,97175.75
2023-03-06T04:52:53.020Z,97173.56
2023-03-06T04:55:20.015Z,97174.13
2023-03-06T04:57:47.256Z,97176.16
2023-03-06T05:00:23.186Z,97176.97
2023-03-06T05:02:50.709Z,97176.16
2023-03-06T05:05:18.383Z,97173.50
2023-03-06T05:07:45.379Z,97176.97
2023-03-06T05:10:13.881Z,97178.94
2023-03-06T05:12:40.373Z,97179.75
2023-03-06T05:15:10.051Z,97174.53
2023-03-06T05:17:37.286Z,97170.66
2023-03-06T05:20:06.204Z,97172.47
2023-03-06T05:22:34.124Z,97167.44
2023-03-06T05:25:00.940Z,97160.97
2023-03-06T05:27:28.241Z,97163.16
2023-03-06T05:29:54.832Z,97158.72
2023-03-06T05:32:22.390Z,97169.25
2023-03-06T05:34:48.956Z,97165.00
2023-03-06T05:37:15.610Z,97167.63
2023-03-06T05:39:42.543Z,97165.19
2023-03-06T05:42:09.083Z,97162.56
2023-03-06T05:44:36.266Z,97162.38
2023-03-06T05:47:02.960Z,97158.72
2023-03-06T05:49:36.540Z,97159.94
2023-03-06T05:52:04.437Z,97163.97
2023-03-06T05:54:34.824Z,97163.97
2023-03-06T05:57:02.207Z,97163.97
2023-03-06T05:59:29.038Z,97164.78
2023-03-06T06:01:56.054Z,97161.75
2023-03-06T06:04:24.498Z,97164.19
2023-03-06T06:06:53.615Z,97164.38
2023-03-06T06:09:20.812Z,97157.06
2023-03-06T06:11:47.290Z,97161.94
2023-03-06T06:14:14.704Z,97157.69
2023-03-06T06:16:41.500Z,97170.22
2023-03-06T06:19:08.259Z,97163.16
2023-03-06T06:21:34.681Z,97157.28
2023-03-06T06:24:01.091Z,97170.84
2023-03-06T06:26:27.615Z,97170.44
2023-03-06T06:28:54.188Z,97170.66
2023-03-06T06:31:20.637Z,97168.03
2023-03-06T06:33:47.516Z,97162.56
2023-03-06T06:36:18.884Z,97174.09
2023-03-06T06:38:45.428Z,97161.56
2023-03-06T06:41:38.904Z,97170.84
2023-03-06T06:43:59.166Z,97172.03
2023-03-06T06:47:14.408Z,97170.44
2023-03-06T06:49:12.865Z,97167.81
2023-03-06T06:51:40.765Z,97165.56
2023-03-06T06:54:08.214Z,97174.94
2023-03-06T06:56:35.166Z,97165.63
2023-03-06T06:59:15.701Z,97170.66
2023-03-06T07:01:44.596Z,97167.44
2023-03-06T07:04:14.421Z,97168.44
2023-03-06T07:06:43.031Z,97177.34
2023-03-06T07:09:09.952Z,97155.03
2023-03-06T07:11:38.210Z,97168.03
2023-03-06T07:14:05.016Z,97177.75
2023-03-06T07:16:31.573Z,97172.09
2023-03-06T07:18:57.997Z,97172.69
2023-03-06T07:21:25.170Z,97175.75
2023-03-06T07:23:51.689Z,97177.56
2023-03-06T07:26:18.114Z,97176.97
2023-03-06T07:28:52.455Z,97172.31
2023-03-06T07:31:22.358Z,97175.53
2023-03-06T07:33:50.426Z,97182.66
2023-03-06T07:36:17.548Z,97176.56
2023-03-06T07:38:45.406Z,97172.34
2023-03-06T07:41:13.880Z,97177.41
2023-03-06T07:43:41.158Z,97181.25
2023-03-06T07:46:08.797Z,97171.97
2023-03-06T07:48:37.384Z,97173.78
2023-03-06T07:51:13.140Z,97171.34
2023-03-06T07:53:40.409Z,97182.66
2023-03-06T07:56:09.065Z,97185.72
2023-03-06T07:58:37.698Z,97178.59
2023-03-06T08:01:07.056Z,97189.94
2023-03-06T08:03:34.082Z,97191.97
2023-03-06T08:06:15.748Z,97182.69
2023-03-06T08:08:44.502Z,97183.09
2023-03-06T08:11:12.728Z,97193.84
2023-03-06T08:13:40.536Z,97185.34
2023-03-06T08:16:08.149Z,97186.97
2023-03-06T08:18:35.046Z,97190.41
2023-03-06T08:21:10.179Z,97192.63
2023-03-06T08:23:37.225Z,97200.13
2023-03-06T08:26:06.227Z,97198.72
2023-03-06T08:28:33.827Z,97202.97
2023-03-06T08:31:11.655Z,97203.78
2023-03-06T08:33:40.478Z,97200.94
2023-03-06T08:36:07.209Z,97176.84
2023-03-06T08:38:34.021Z,97203.38
2023-03-06T08:41:01.070Z,97210.25
2023-03-06T08:43:27.583Z,97203.38
2023-03-06T08:45:55.776Z,97206.44
2023-03-06T08:48:22.860Z,97213.50
2023-03-06T08:50:49.401Z,97213.91
2023-03-06T08:53:16.233Z,97207.84
2023-03-06T08:55:43.546Z,97202.59
2023-03-06T08:58:10.010Z,97202.97
2023-03-06T09:00:38.059Z,97201.16
2023-03-06T09:03:05.588Z,97199.75
2023-03-06T09:05:32.271Z,97196.94
2023-03-06T09:07:58.724Z,97206.84
2023-03-06T09:10:25.919Z,97200.19
2023-03-06T09:12:55.116Z,97210.69
2023-03-06T09:15:24.500Z,97218.03
2023-03-06T09:17:51.582Z,97211.13
2023-03-06T09:20:18.976Z,97222.88
2023-03-06T09:22:46.773Z,97217.19
2023-03-06T09:25:14.438Z,97219.03
2023-03-06T09:27:41.363Z,97223.91
2023-03-06T09:30:08.731Z,97222.25
2023-03-06T09:32:35.168Z,97217.63
2023-03-06T09:35:01.695Z,97223.69
2023-03-06T09:37:28.390Z,97226.91
2023-03-06T09:39:54.814Z,97224.50
2023-03-06T09:42:23.606Z,97223.06
2023-03-06T09:45:00.499Z,97223.50
2023-03-06T09:47:41.981Z,97222.28
2023-03-06T09:50:30.288Z,97220.47
2023-03-06T09:53:03.385Z,97221.88
2023-03-06T09:55:37.270Z,97214.78
2023-03-06T09:58:24.868Z,97221.66
2023-03-06T10:01:01.209Z,97216.00
2023-03-06T10:03:39.505Z,97217.22
2023-03-06T10:06:15.445Z,97205.03
2023-03-06T10:09:13.565Z,97209.50
2023-03-06T10:12:00.804Z,97210.31
2023-03-06T10:14:49.185Z,97215.56
2023-03-06T10:17:19.218Z,97211.13
2023-03-06T10:19:47.671Z,97211.31
2023-03-06T10:22:55.385Z,97209.06
2023-03-06T10:25:30.697Z,97206.66
2023-03-06T10:28:14.643Z,97213.16
2023-03-06T10:31:03.913Z,97210.91
2023-03-06T10:33:40.606Z,97219.22
2023-03-06T10:36:12.687Z,97216.16
2023-03-06T10:38:40.676Z,97212.53
2023-03-06T10:41:13.022Z,97219.03
2023-03-06T10:44:04.439Z,97208.25
2023-03-06T10:46:37.042Z,97208.06
2023-03-06T10:49:24.775Z,97208.25
2023-03-06T10:52:14.230Z,97215.16
2023-03-06T10:54:44.276Z,97212.13
2023-03-06T10:57:31.784Z,97211.31
2023-03-06T11:00:01.964Z,97214.13
2023-03-06T11:02:40.961Z,97207.84
2023-03-06T11:05:20.613Z,97207.84
2023-03-06T11:07:55.870Z,97212.34
2023-03-06T11:10:23.640Z,97207.88
2023-03-06T11:13:07.415Z,97208.69
2023-03-06T11:15:34.670Z,97202.19
2023-03-06T11:18:21.872Z,97199.50
2023-03-06T11:20:54.575Z,97207.78
2023-03-06T11:23:44.477Z,97198.84
2023-03-06T11:26:34.440Z,97194.34
2023-03-06T11:29:25.886Z,97195.50
2023-03-06T11:32:24.709Z,97194.66
2023-03-06T11:34:57.529Z,97194.69
2023-03-06T11:37:37.413Z,97201.53
2023-03-06T11:40:17.467Z,97190.59
2023-03-06T11:42:53.697Z,97193.78
2023-03-06T11:45:26.118Z,97197.81
2023-03-06T11:48:03.242Z,97182.75
2023-03-06T11:50:36.589Z,97182.28
2023-03-06T11:53:11.438Z,97182.91
2023-03-06T11:56:11.184Z,97178.63
2023-03-06T11:58:56.116Z,97181.09
2023-03-06T12:01:55.261Z,97175.47
2023-03-06T12:04:59.848Z,97179.00
2023-03-06T12:07:32.616Z,97171.66
2023-03-06T12:10:11.318Z,97167.66
2023-03-06T12:13:20.797Z,97172.53
2023-03-06T12:15:53.125Z,97176.41
2023-03-06T12:18:35.275Z,97170.72
2023-03-06T12:21:27.005Z,97179.69
2023-03-06T12:24:13.820Z,97173.72
2023-03-06T12:26:59.670Z,97177.41
2023-03-06T12:29:39.500Z,97172.53
2023-03-06T12:32:36.315Z,97182.88
2023-03-06T12:35:30.878Z,97169.69
2023-03-06T12:38:43.298Z,97176.16
2023-03-06T12:41:23.059Z,97170.94
2023-03-06T12:44:37.088Z,97158.78
2023-03-06T12:47:09.890Z,97151.25
2023-03-06T12:49:41.865Z,97154.28
2023-03-06T12:52:18.706Z,97157.75
2023-03-06T12:54:48.412Z,97155.50
2023-03-06T12:57:15.532Z,97147.34
2023-03-06T12:59:47.939Z,97150.19
2023-03-06T13:02:33.663Z,97152.22
2023-03-06T13:05:23.679Z,97151.19
2023-03-06T13:08:11.456Z,97145.28
2023-03-06T13:10:40.387Z,97142.44
2023-03-06T13:13:32.902Z,97146.84
2023-03-06T13:16:24.025Z,97144.78
2023-03-06T13:18:57.884Z,97129.72
2023-03-06T13:21:46.241Z,97134.59
2023-03-06T13:24:28.054Z,97130.06
2023-03-06T13:27:37.420Z,97118.34
2023-03-06T13:30:27.449Z,97127.47
2023-03-06T13:32:55.433Z,97127.66
2023-03-06T13:35:51.029Z,97125.22
2023-03-06T13:38:53.076Z,97124.84
2023-03-06T13:41:22.638Z,97090.22
2023-03-06T13:43:54.965Z,97120.78
2023-03-06T13:46:30.889Z,97119.97
2023-03-06T13:49:10.548Z,97119.00
2023-03-06T13:51:40.231Z,97123.09
2023-03-06T13:54:30.413Z,97124.69
2023-03-06T13:57:14.018Z,97108.25
2023-03-06T14:00:09.233Z,97114.69
2023-03-06T14:02:55.116Z,97109.81
2023-03-06T14:05:22.687Z,97107.78
2023-03-06T14:08:10.631Z,97108.66
2023-03-06T14:10:38.513Z,97105.84
2023-03-06T14:13:30.041Z,97102.63
2023-03-06T14:15:58.839Z,97100.00
2023-03-06T14:18:31.671Z,97098.00
2023-03-06T14:21:04.341Z,97104.09
2023-03-06T14:23:35.834Z,97101.84
2023-03-06T14:26:18.595Z,97086.06
2023-03-06T14:28:54.314Z,97095.75
2023-03-06T14:31:30.125Z,97098.97
2023-03-06T14:34:02.564Z,97100.16
2023-03-06T14:36:34.970Z,97101.22
2023-03-06T14:39:23.274Z,97103.91
2023-03-06T14:41:50.064Z,97096.22
2023-03-06T14:44:22.623Z,97094.41
2023-03-06T14:46:57.639Z,97101.13
2023-03-06T14:49:25.740Z,97098.69
2023-03-06T14:51:54.884Z,97090.78
2023-03-06T14:54:26.328Z,97089.34
2023-03-06T14:57:02.989Z,97094.88
2023-03-06T14:59:33.045Z,97090.63
2023-03-06T15:02:03.988Z,97092.22
2023-03-06T15:04:43.729Z,97085.72
2023-03-06T15:07:14.603Z,97090.63
2023-03-06T15:09:45.114Z,97052.34
2023-03-06T15:12:20.892Z,97092.63
2023-03-06T15:14:59.198Z,97093.03
2023-03-06T15:17:30.803Z,97094.91
2023-03-06T15:19:59.798Z,97089.22
2023-03-06T15:22:50.625Z,97096.34
2023-03-06T15:25:23.387Z,97087.22
2023-03-06T15:28:04.894Z,97092.25
2023-03-06T15:30:37.204Z,97090.63
2023-03-06T15:33:17.998Z,97098.75
2023-03-06T15:35:57.084Z,97087.41
2023-03-06T15:38:26.445Z,97095.13
2023-03-06T15:41:01.134Z,97096.78
2023-03-06T15:43:31.479Z,97097.19
2023-03-06T15:46:00.666Z,97108.97
2023-03-06T15:48:28.221Z,97113.06
2023-03-06T15:50:55.028Z,97111.19
2023-03-06T15:53:21.533Z,97096.66
2023-03-06T15:55:48.296Z,97119.91
2023-03-06T15:58:17.743Z,97111.00
2023-03-06T16:00:44.295Z,97116.69
2023-03-06T16:03:12.101Z,97113.25
2023-03-06T16:05:39.133Z,97119.94
2023-03-06T16:08:06.747Z,97124.00
2023-03-06T16:10:37.497Z,97130.25
2023-03-06T16:13:06.914Z,97123.59
2023-03-06T16:15:46.466Z,97126.84
2023-03-06T16:18:13.658Z,97112.66
2023-03-06T16:20:41.502Z,97120.97
2023-03-06T16:23:10.462Z,97128.25
2023-03-06T16:25:45.215Z,97117.31
2023-03-06T16:28:15.322Z,97125.00
2023-03-06T16:30:43.404Z,97127.03
2023-03-06T16:33:12.021Z,97125.41
2023-03-06T16:35:38.688Z,97124.00
2023-03-06T16:38:05.275Z,97130.09
2023-03-06T16:40:37.903Z,97130.69
2023-03-06T16:43:05.377Z,97130.47
2023-03-06T16:45:36.999Z,97134.53
2023-03-06T16:48:03.766Z,97130.88
2023-03-06T16:50:38.104Z,97128.88
2023-03-06T16:53:05.181Z,97123.19
2023-03-06T16:55:31.993Z,97112.47
2023-03-06T16:57:59.204Z,97119.38
2023-03-06T17:00:31.093Z,97111.88
2023-03-06T17:02:57.996Z,97125.22
2023-03-06T17:05:24.476Z,97120.56
2023-03-06T17:07:52.025Z,97125.44
2023-03-06T17:10:19.331Z,97127.25
2023-03-06T17:12:45.797Z,97125.44
2023-03-06T17:15:12.435Z,97124.41
2023-03-06T17:17:38.884Z,97119.16
2023-03-06T17:20:11.538Z,97131.28
2023-03-06T17:22:38.737Z,97134.97
2023-03-06T17:25:07.760Z,97137.38
2023-03-06T17:27:35.282Z,97128.47
2023-03-06T17:30:02.237Z,97136.56
2023-03-06T17:32:29.934Z,97141.03
2023-03-06T17:34:56.499Z,97134.56
2023-03-06T17:37:22.962Z,97141.41
2023-03-06T17:39:50.035Z,97132.50
2023-03-06T17:42:16.680Z,97149.53
2023-03-06T17:44:43.099Z,97141.41
2023-03-06T17:47:09.609Z,97142.44
2023-03-06T17:49:36.124Z,97146.88
2023-03-06T17:52:05.764Z,97147.50
2023-03-06T17:54:33.302Z,97148.50
2023-03-06T17:57:03.227Z,97146.09
2023-03-06T17:59:31.062Z,97144.25
2023-03-06T18:01:58.906Z,97150.75
2023-03-06T18:04:26.384Z,97152.78
2023-03-06T18:06:52.903Z,97147.50
2023-03-06T18:09:19.690Z,97152.56
2023-03-06T18:11:46.123Z,97148.50
2023-03-06T18:14:12.638Z,97157.41
2023-03-06T18:16:39.201Z,97155.41
2023-03-06T18:19:05.639Z,97154.38
2023-03-06T18:21:32.132Z,97152.56
2023-03-06T18:23:58.581Z,97154.97
2023-03-06T18:26:27.912Z,97141.41
2023-03-06T18:29:01.383Z,97137.34
2023-03-06T18:31:34.762Z,97145.47
2023-03-06T18:34:08.584Z,97135.16
2023-03-06T18:36:35.760Z,97133.13
2023-03-06T18:39:03.717Z,97146.25
2023-03-06T18:41:31.373Z,97139.16
2023-03-06T18:43:59.857Z,97144.25
2023-03-06T18:46:30.365Z,97146.25
2023-03-06T18:48:56.789Z,97143.00
2023-03-06T18:51:23.374Z,97136.16
2023-03-06T18:53:49.793Z,97139.78
2023-03-06T18:56:19.815Z,97139.38
2023-03-06T18:58:47.391Z,97130.66
2023-03-06T19:01:14.376Z,97139.38
2023-03-06T19:03:41.094Z,97116.88
2023-03-06T19:06:12.891Z,97124.97
2023-03-06T19:08:40.308Z,97126.00
2023-03-06T19:11:10.102Z,97116.50
2023-03-06T19:13:37.057Z,97115.47
2023-03-06T19:16:04.160Z,97117.50
2023-03-06T19:18:30.877Z,97089.56
2023-03-06T19:21:08.348Z,97119.72
2023-03-06T19:23:35.799Z,97122.56
2023-03-06T19:26:02.269Z,97116.72
2023-03-06T19:28:28.829Z,97118.72
2023-03-06T19:30:55.361Z,97116.91
2023-03-06T19:33:22.509Z,97127.22
2023-03-06T19:35:48.907Z,97120.75
2023-03-06T19:38:15.566Z,97112.63
2023-03-06T19:40:49.518Z,97117.31
2023-03-06T19:43:16.232Z,97105.75
2023-03-06T19:45:43.935Z,97107.00
2023-03-06T19:48:12.332Z,97091.56
2023-03-06T19:50:39.943Z,97102.50
2023-03-06T19:53:07.726Z,97100.50
2023-03-06T19:55:34.808Z,97098.88
2023-03-06T19:58:01.268Z,97095.63
2023-03-06T20:00:28.066Z,97094.84
2023-03-06T20:02:54.771Z,97092.00
2023-03-06T20:05:21.575Z,97083.50
2023-03-06T20:07:48.265Z,97078.22
2023-03-06T20:10:14.784Z,97088.97
2023-03-06T20:12:41.175Z,97090.56
2023-03-06T20:15:08.248Z,97088.97
2023-03-06T20:17:35.512Z,97083.91
2023-03-06T20:20:02.502Z,97089.97
2023-03-06T20:22:29.226Z,97083.09
2023-03-06T20:24:55.627Z,97087.09
2023-03-06T20:27:22.010Z,97078.19
2023-03-06T20:29:48.438Z,97077.41
2023-03-06T20:32:14.927Z,97074.97
2023-03-06T20:34:41.692Z,97069.75
2023-03-06T20:37:09.468Z,97064.06
2023-03-06T20:39:36.738Z,97063.25
2023-03-06T20:42:04.322Z,97056.38
2023-03-06T20:44:31.072Z,97065.69
2023-03-06T20:46:57.865Z,97066.91
2023-03-06T20:49:27.066Z,97069.53
2023-03-06T20:51:53.935Z,97065.25
2023-03-06T20:54:20.380Z,97071.53
2023-03-06T20:56:48.540Z,97069.31
2023-03-06T20:59:15.345Z,97069.72
2023-03-06T21:01:44.062Z,97069.91
2023-03-06T21:04:13.756Z,97060.59
2023-03-06T21:06:43.474Z,97068.91
2023-03-06T21:09:10.838Z,97064.63
2023-03-06T21:11:37.237Z,97068.28
2023-03-06T21:14:03.921Z,97066.06
2023-03-06T21:16:30.465Z,97053.53
2023-03-06T21:18:58.817Z,97057.16
2023-03-06T21:21:28.754Z,97052.47
2023-03-06T21:23:55.854Z,97047.00
2023-03-06T21:26:25.283Z,97052.47
2023-03-06T21:28:52.130Z,97042.78
2023-03-06T21:31:20.595Z,97054.50
2023-03-06T21:33:48.658Z,97055.13
2023-03-06T21:36:15.659Z,97044.59
2023-03-06T21:38:42.096Z,97052.31
2023-03-06T21:41:28.680Z,97054.91
2023-03-06T21:44:00.485Z,97052.09
2023-03-06T21:46:28.237Z,97045.38
2023-03-06T21:48:55.509Z,97048.22
2023-03-06T21:51:23.666Z,97037.09
2023-03-06T21:53:51.618Z,97045.97
2023-03-06T21:56:20.503Z,97042.75
2023-03-06T21:58:47.663Z,97046.81
2023-03-06T22:01:18.535Z,97035.69
2023-03-06T22:03:45.368Z,97031.41
2023-03-06T22:06:14.751Z,97041.16
2023-03-06T22:08:41.851Z,97037.88
2023-03-06T22:11:15.149Z,97029.59
2023-03-06T22:13:42.242Z,97033.25
2023-03-06T22:16:09.349Z,97027.16
2023-03-06T22:18:35.892Z,97021.09
2023-03-06T22:21:13.725Z,97015.06
2023-03-06T22:23:40.520Z,97003.53
2023-03-06T22:26:11.247Z,97004.75
2023-03-06T22:28:38.096Z,97012.22
2023-03-06T22:31:05.594Z,96997.47
2023-03-06T22:33:32.042Z,96997.88
2023-03-06T22:36:06.101Z,96999.06
2023-03-06T22:38:34.718Z,96992.59
2023-03-06T22:41:01.541Z,96992.81
2023-03-06T22:43:28.075Z,96991.59
2023-03-06T22:45:54.596Z,96984.09
2023-03-06T22:48:21.582Z,96992.00
2023-03-06T22:50:48.128Z,96993.81
2023-03-06T22:53:14.579Z,96990.34
2023-03-06T22:55:40.998Z,96984.91
2023-03-06T22:58:07.726Z,96992.19
2023-03-06T23:00:34.139Z,96990.78
2023-03-06T23:03:01.276Z,96971.78
2023-03-06T23:05:29.433Z,96973.59
2023-03-06T23:07:56.064Z,96976.00
2023-03-06T23:10:22.480Z,96969.75
2023-03-06T23:13:07.672Z,96976.22
2023-03-06T23:15:52.693Z,96962.69
2023-03-06T23:18:39.279Z,96971.97
2023-03-06T23:21:24.383Z,96970.75
2023-03-06T23:24:09.573Z,96970.97
2023-03-06T23:26:36.153Z,96971.56
2023-03-06T23:29:04.156Z,96967.94
2023-03-06T23:31:31.445Z,96965.69
2023-03-06T23:33:59.908Z,96964.47
2023-03-06T23:36:27.736Z,96973.38
2023-03-06T23:38:54.877Z,96967.31
2023-03-06T23:41:22.773Z,96970.56
2023-03-06T23:43:50.104Z,96975.00
2023-03-06T23:46:17.164Z,96975.41
2023-03-06T23:48:44.576Z,96975.00
2023-03-06T23:51:17.273Z,96968.75
2023-03-06T23:53:44.971Z,96956.00
2023-03-06T23:56:12.530Z,96966.50
2023-03-06T23:58:39.283Z,96976.22
